Warning: Javascript must be enabled to use all the features on this page!


Page Loading - Please Wait...

* We've detected you're using a mobile device. Find our Next Generation Station Page here.
Click to hideNews Bulletins

Peak Streamflow for the Nation

USGS 02479000 PASCAGOULA RIVER AT MERRILL, MS

George County, Mississippi
Hydrologic Unit Code 03170006
Latitude  30°58'41", Longitude  88°43'37" NAD83
Drainage area 6,590  square miles
Contributing drainage area 6,590  square miles
Gage datum 26.25 feet above NGVD29
Output formats
Table
Graph
Tab-separated file
peakfq (watstore) format
Reselect output format
Water
Year
Date Gage
Height
(feet)
Stream-
flow
(cfs)
1900 1900-04 32.50Bd 230,0007,Bd
1905 1905-02-15 27.50 119,000
1906 1906-03-25 25.60 87,400
1907 1907-05-21 25.70 89,000
1908 1908-02-20 25.40 84,200
1909 1909-06-04 29.10 148,000
1910 1910-06-07 20.60 32,700
1911 1911-01-08 24.30 67,400
1912 1912-04-22 30.20 170,000
1913 1913-03-19 25.50 85,800
1914 1914-04-01 21.00 34,800
1915 1915-02-07 23.90 61,800
1916 1916-07-09 31.00 187,000
1917 1917-03-06 24.50 70,300
1918 1918-05-07 20.20 30,800
1919 1919-03-10 23.70 59,200
1920 1919-12-15 29.50 156,000
1921 1921-04-21 26.90 109,000
1922 1922-03-11 23.60 57,900
1923 1923-04-10 23.70 59,200
1924 1924-01-28 22.10 42,200
1925 1925-01-21 25.50 85,800
1926 1926-01-10 23.40 55,300
1927 1927-02-20 25.20 81,000
1928 1928-06-08 28.60 139,000
1929 1929-03-21 26.40 100,000
1930 1929-11-21 23.50 56,600
1931 1930-11-21 20.00 28,500
1932 1932-01-09 23.20 46,100
1933 1933-04-16 23.70 55,000
1934 1934-03-08 23.05 43,800
1935 1935-03-12 25.83 89,700
1936 1936-02-11 25.43 80,700
1937 1937-01-26 23.83 52,600
1938 1938-04-13 29.71 154,000
1939 1939-04-02 21.82 39,000
1940 1940-07-14 24.30 66,800
1941 1941-03-12 22.36 43,300
1942 1942-03-29 23.13 50,100
1943 1943-03-24 27.06 120,000
1944 1944-05-01 25.25 84,800
1945 1945-04-04 20.50 34,500
1946 1946-05-19 22.29 41,800
1947 1947-01-26 25.33 86,500
1948 1948-03-10 25.95 103,000
1949 1948-11-28 25.66 89,000
1950 1950-02-20 23.34 54,100
1951 1951-04-03 24.62 71,800
1952 1952-03-07 18.29 25,200
1953 1953-05-10 23.27 54,100
1954 1953-12-15 22.18 44,000
1955 1955-04-15 23.16 52,900
1956 1956-03-23 21.90 42,000
1957 1957-09-21 20.94 34,400
1958 1957-11-20 21.41 37,500
1959 1959-06-02 23.08 51,800
1960 1960-04-07 22.26 44,400
1961 1961-02-27 30.66 178,000
1962 1961-12-22 25.76 90,000
1963 1963-01-24 17.09 22,600
1964 1964-04-14 24.80 86,000
1965 1965-02-21 23.00 50,800
1966 1966-02-18 26.012 105,000
1967 1967-05-09 17.53 26,600
1968 1967-12-22 21.48 46,300
1969 1969-04-19 23.68 63,600
1970 1970-03-06 17.72 25,500
1971 1971-03-07 23.84 61,000
1972 1971-12-13 21.73 40,300
1973 1973-04-01 23.53 58,300
1974 1974-04-19 28.37 139,000
1975 1975-01-13 23.17 60,900
1976 1976-04-05 24.50 77,300
1977 1977-03-13 23.27 62,000
1978 1978-06-10 20.44 40,600
1979 1979-04-06 25.57 93,300
1980 1980-04-03 26.98 116,000
1981 1981-04-07 21.13 47,200
1982 1982-02-06 20.59 41,400
1983 1983-04-09 26.89 113,000
1984 1984-01-02 22.17 51,600
1985 1985-03-04 21.70 48,000
1986 1985-11-02 23.08 61,000
1987 1987-03-05 24.58 79,200
1988 1988-04-06 19.92 38,100
1989 1989-04-03 21.14 44,400
1990 1990-02-23 26.38 106,000
1991 1991-05-07 24.72 81,100
1992 1992-02-20 22.69 56,800
1993 1993-01-23 25.46 91,700
1994 1994-02-02 23.49 65,600
1995 1995-03-12 21.67 47,800
1996 1996-03-12 20.02 38,600
1997 1997-05-04 23.63 67,300
1998 1998-01-13 24.93 84,000
1999 1999-02-02 23.86 70,000
2000 2000-04-08 17.07 26,700
2001 2001-03-07 25.32 97,000
2002 2001-12-20 20.29 37,500
2003 2003-02-28 24.33 75,900
2004 2004-02-16 23.91 70,600
2005 2005-04-04 24.74 81,400
2006 2006-02-28 18.78 32,800
2007 2007-01-09 18.59 32,100
2008 2008-02-28 18.09 30,600
2009 2009-04-02 25.44 92,000
2010 2009-12-19 24.92 82,900
2011 2011-03-15 24.88 82,200
2012 2012-09-03 24.69 78,800
2013 2013-02-15 26.00 101,000
2014 2014-04-15 24.33 72,400
2015 2015-01-10 19.98 36,800
2016 2016-03-16 28.02 118,000
2017 2017-06-24 25.78 81,000
2018 2018-04-18 22.20 41,800
2019 2019-01-01 27.52 109,000
2020 2020-02-14 23.76 55,900
?
  Peak Gage-Height Qualification Codes.
?
  Peak Streamflow Qualification Codes.